This is the latest recevied weather packets stored in our database for station/object WD7CGF. If no packets are shown the sender has not sent any weather packets the latest 10 day(s).
| Time | Temp. | Humidity | Pressure | Rain* | Wind** | Luminosity | Snow |
|---|---|---|---|---|---|---|---|
| 1787853515 | 22.78° C | 57% | 1013.6 hPa | 0 mm | - | - | - |
| 1787852911 | 22.22° C | 58% | 1013.6 hPa | 0 mm | - | - | - |
| 1787852324 | 21.67° C | 58% | 1013.5 hPa | 0 mm | - | - | - |
| 1787851725 | 21.67° C | 58% | 1013.7 hPa | 0 mm | - | - | - |
| 1787851118 | 21.67° C | 59% | 1013.7 hPa | 0 mm | - | - | - |
| 1787850512 | 21.67° C | 58% | 1013.4 hPa | 0 mm | - | - | - |
| 1787849927 | 22.78° C | 57% | 1013.2 hPa | 0 mm | - | - | - |
| 1787849321 | 22.78° C | 57% | 1013.2 hPa | 0 mm | - | - | - |
| 1787848717 | 22.78° C | 58% | 1013.3 hPa | 0 mm | - | - | - |
| 1787848130 | 22.22° C | 60% | 1013.5 hPa | 0 mm | - | - | - |
| 1787847528 | 21.11° C | 63% | 1013.5 hPa | 0 mm | - | - | - |
| 1787846923 | 21.11° C | 63% | 1013.6 hPa | 0 mm | - | - | - |
| 1787846320 | 20.56° C | 67% | 1013.9 hPa | 0 mm | - | - | - |
| 1787845716 | 19.44° C | 71% | 1013.9 hPa | 0 mm | - | - | - |
| 1787845127 | 17.78° C | 73% | 1014.2 hPa | 0 mm | - | - | - |
| 1787844522 | 17.22° C | 76% | 1014.4 hPa | 0 mm | - | - | - |
| 1787843915 | 16.67° C | 79% | 1014.4 hPa | 0 mm | - | - | - |
| 1787843313 | 16.11° C | 81% | 1014.3 hPa | 0 mm | - | - | - |
| 1787842728 | 15.56° C | 82% | 1014.3 hPa | 0 mm | - | - | - |
| 1787842121 | 15.56° C | 82% | 1014.3 hPa | 0 mm | - | - | - |
| 1787841516 | 15.56° C | 83% | 1014.5 hPa | 0 mm | - | - | - |
| 1787840930 | 15° C | 83% | 1014.3 hPa | 0 mm | - | - | - |
| 1787840325 | 15° C | 83% | 1014.3 hPa | 0 mm | - | - | - |
| 1787839719 | 14.44° C | 83% | 1014.2 hPa | 0 mm | - | - | - |
| 1787839113 | 14.44° C | 83% | 1014.1 hPa | 0 mm | - | - | - |
* Rain latest hour (hover to see other rain measurements)
** Current wind speed in m/s (hover to see current wind gust speed)